createdAt,value
2023-02-02T00:02:10.171Z,101149.97
2023-02-02T00:04:38.852Z,101151.03
2023-02-02T00:07:07.567Z,101152.09
2023-02-02T00:09:36.091Z,101145.03
2023-02-02T00:12:06.551Z,101138.16
2023-02-02T00:14:35.255Z,101141.25
2023-02-02T00:17:04.904Z,101149.25
2023-02-02T00:19:33.522Z,101146.19
2023-02-02T00:22:02.151Z,101132.56
2023-02-02T00:24:31.137Z,101132.47
2023-02-02T00:27:01.370Z,101138.81
2023-02-02T00:29:32.579Z,101135.28
2023-02-02T00:32:01.084Z,101133.63
2023-02-02T00:34:29.802Z,101136.91
2023-02-02T00:36:58.285Z,101139.88
2023-02-02T00:39:27.726Z,101146.00
2023-02-02T00:41:56.369Z,101145.03
2023-02-02T00:44:42.613Z,101139.88
2023-02-02T00:47:12.799Z,101141.69
2023-02-02T00:49:41.369Z,101135.69
2023-02-02T00:52:09.967Z,101133.47
2023-02-02T00:54:38.417Z,101145.72
2023-02-02T00:57:07.053Z,101139.47
2023-02-02T00:59:35.641Z,101142.00
2023-02-02T01:02:04.217Z,101138.06
2023-02-02T01:04:34.045Z,101133.22
2023-02-02T01:07:02.547Z,101131.50
2023-02-02T01:09:31.216Z,101127.63
2023-02-02T01:11:59.799Z,101133.03
2023-02-02T01:14:28.199Z,101128.69
2023-02-02T01:16:56.749Z,101121.72
2023-02-02T01:19:25.573Z,101131.97
2023-02-02T01:21:55.409Z,101126.50
2023-02-02T01:24:24.096Z,101129.75
2023-02-02T01:26:52.619Z,101118.03
2023-02-02T01:29:21.062Z,101125.78
2023-02-02T01:31:50.015Z,101138.16
2023-02-02T01:34:21.556Z,101117.56
2023-02-02T01:36:50.308Z,101144.75
2023-02-02T01:39:20.247Z,101135.53
2023-02-02T01:41:49.539Z,101141.53
2023-02-02T01:44:55.328Z,101149.41
2023-02-02T01:47:27.976Z,101147.69
2023-02-02T01:49:57.093Z,101146.13
2023-02-02T01:52:29.127Z,101156.06
2023-02-02T01:55:04.285Z,101150.00
2023-02-02T01:57:37.161Z,101156.66
2023-02-02T02:00:09.586Z,101162.16
2023-02-02T02:02:40.221Z,101162.47
2023-02-02T02:05:10.754Z,101163.44
2023-02-02T02:07:43.347Z,101167.53
2023-02-02T02:10:13.446Z,101161.38
2023-02-02T02:12:41.973Z,101159.50
2023-02-02T02:15:29.349Z,101156.69
2023-02-02T02:18:08.544Z,101157.09
2023-02-02T02:21:42.515Z,101146.50
2023-02-02T02:25:15.331Z,101148.41
2023-02-02T02:28:24.644Z,101145.34
2023-02-02T02:31:35.446Z,101157.44
2023-02-02T02:34:10.915Z,101159.81
2023-02-02T02:36:49.326Z,101160.38
2023-02-02T02:39:26.366Z,101152.81
2023-02-02T02:42:00.109Z,101147.66
2023-02-02T02:44:32.588Z,101147.97
2023-02-02T02:47:02.017Z,101143.00
2023-02-02T02:49:31.948Z,101137.50
2023-02-02T02:52:00.462Z,101150.81
2023-02-02T02:54:32.509Z,101156.47
2023-02-02T02:57:15.065Z,101152.69
2023-02-02T02:59:56.864Z,101143.66
2023-02-02T03:02:37.369Z,101158.44
2023-02-02T03:05:23.096Z,101147.28
2023-02-02T03:07:59.572Z,101153.53
2023-02-02T03:10:31.497Z,101159.94
2023-02-02T03:13:00.117Z,101150.50
2023-02-02T03:15:28.689Z,101162.13
2023-02-02T03:17:57.291Z,101157.75
2023-02-02T03:20:27.643Z,101158.00
2023-02-02T03:22:56.322Z,101159.13
2023-02-02T03:25:25.098Z,101147.97
2023-02-02T03:27:54.733Z,101150.63
2023-02-02T03:30:23.683Z,101157.69
2023-02-02T03:32:53.830Z,101151.34
2023-02-02T03:35:22.577Z,101154.22
2023-02-02T03:37:53.188Z,101156.53
2023-02-02T03:40:21.696Z,101146.69
2023-02-02T03:42:50.210Z,101149.31
2023-02-02T03:45:18.889Z,101154.16
2023-02-02T03:47:47.547Z,101147.50
2023-02-02T03:50:16.454Z,101151.28
2023-02-02T03:52:44.886Z,101152.84
2023-02-02T03:55:14.774Z,101161.22
2023-02-02T03:57:43.367Z,101158.00
2023-02-02T04:00:12.853Z,101165.09
2023-02-02T04:02:41.423Z,101163.94
2023-02-02T04:05:09.949Z,101161.22
2023-02-02T04:07:38.600Z,101160.97
2023-02-02T04:10:07.702Z,101167.72
2023-02-02T04:12:37.572Z,101156.28
2023-02-02T04:15:07.336Z,101162.28
2023-02-02T04:17:36.295Z,101166.47
2023-02-02T04:20:05.226Z,101166.56
2023-02-02T04:22:34.555Z,101155.63
2023-02-02T04:25:03.042Z,101174.28
2023-02-02T04:27:33.815Z,101169.03
2023-02-02T04:30:03.945Z,101160.47
2023-02-02T04:32:32.423Z,101165.81
2023-02-02T04:35:00.959Z,101171.16
2023-02-02T04:37:31.758Z,101169.94
2023-02-02T04:40:00.371Z,101156.59
2023-02-02T04:42:29.293Z,101154.41
2023-02-02T04:44:57.801Z,101153.31
2023-02-02T04:47:27.668Z,101162.03
2023-02-02T04:49:56.129Z,101165.38
2023-02-02T04:52:24.811Z,101161.09
2023-02-02T04:54:53.475Z,101167.66
2023-02-02T04:57:21.953Z,101157.94
2023-02-02T04:59:50.434Z,101158.91
2023-02-02T05:02:19.501Z,101157.47
2023-02-02T05:04:49.474Z,101150.28
2023-02-02T05:07:17.916Z,101156.28
2023-02-02T05:09:46.559Z,101154.44
2023-02-02T05:12:15.033Z,101153.41
2023-02-02T05:14:43.463Z,101160.31
2023-02-02T05:17:12.039Z,101149.94
2023-02-02T05:19:40.475Z,101144.84
2023-02-02T05:22:10.274Z,101155.19
2023-02-02T05:24:38.704Z,101150.09
2023-02-02T05:27:07.293Z,101145.66
2023-02-02T05:29:35.860Z,101147.16
2023-02-02T05:32:04.583Z,101141.69
2023-02-02T05:34:32.995Z,101145.66
2023-02-02T05:37:01.414Z,101150.53
2023-02-02T05:39:31.139Z,101155.53
2023-02-02T05:41:59.929Z,101150.41
2023-02-02T05:44:29.451Z,101158.47
2023-02-02T05:46:57.901Z,101145.56
2023-02-02T05:49:26.579Z,101157.72
2023-02-02T05:51:58.028Z,101158.28
2023-02-02T05:54:26.599Z,101141.38
2023-02-02T05:56:57.345Z,101144.16
2023-02-02T05:59:26.817Z,101159.13
2023-02-02T06:01:55.414Z,101156.91
2023-02-02T06:04:24.009Z,101144.44
2023-02-02T06:06:52.495Z,101165.31
2023-02-02T06:09:20.913Z,101160.13
2023-02-02T06:11:49.632Z,101153.69
2023-02-02T06:14:20.802Z,101168.94
2023-02-02T06:16:49.173Z,101170.25
2023-02-02T06:19:17.757Z,101173.22
2023-02-02T06:21:46.547Z,101161.88
2023-02-02T06:24:15.572Z,101175.44
2023-02-02T06:26:44.071Z,101177.31
2023-02-02T06:29:13.620Z,101175.34
2023-02-02T06:31:43.429Z,101182.72
2023-02-02T06:34:14.567Z,101182.97
2023-02-02T06:36:43.555Z,101184.56
2023-02-02T06:39:11.961Z,101180.19
2023-02-02T06:41:40.600Z,101191.31
2023-02-02T06:44:09.271Z,101182.72
2023-02-02T06:46:37.751Z,101202.56
2023-02-02T06:49:07.677Z,101195.16
2023-02-02T06:51:36.124Z,101203.06
2023-02-02T06:54:04.894Z,101199.78
2023-02-02T06:56:33.360Z,101202.56
2023-02-02T06:59:01.821Z,101209.59
2023-02-02T07:01:30.579Z,101199.88
2023-02-02T07:03:59.361Z,101202.56
2023-02-02T07:06:29.959Z,101205.81
2023-02-02T07:09:05.368Z,101205.28
2023-02-02T07:11:37.577Z,101206.34
2023-02-02T07:14:09.505Z,101201.16
2023-02-02T07:16:38.094Z,101211.78
2023-02-02T07:19:06.607Z,101210.63
2023-02-02T07:21:36.695Z,101213.91
2023-02-02T07:24:07.347Z,101219.38
2023-02-02T07:26:37.056Z,101218.31
2023-02-02T07:29:06.664Z,101229.19
2023-02-02T07:31:36.776Z,101223.75
2023-02-02T07:34:05.560Z,101232.16
2023-02-02T07:36:36.150Z,101223.25
2023-02-02T07:39:06.936Z,101222.44
2023-02-02T07:41:37.343Z,101229.50
2023-02-02T07:44:07.196Z,101223.59
2023-02-02T07:46:35.678Z,101233.13
2023-02-02T07:49:06.049Z,101245.13
2023-02-02T07:51:38.062Z,101234.94
2023-02-02T07:54:08.564Z,101242.59
2023-02-02T07:56:39.475Z,101248.84
2023-02-02T07:59:08.115Z,101248.84
2023-02-02T08:01:36.632Z,101240.13
2023-02-02T08:04:05.547Z,101242.34
2023-02-02T08:06:45.824Z,101250.81
2023-02-02T08:09:14.654Z,101259.09
2023-02-02T08:11:44.547Z,101247.59
2023-02-02T08:14:15.829Z,101262.56
2023-02-02T08:16:50.528Z,101256.50
2023-02-02T08:19:24.331Z,101257.66
2023-02-02T08:21:56.622Z,101263.06
2023-02-02T08:24:26.615Z,101266.94
2023-02-02T08:27:06.384Z,101266.44
2023-02-02T08:29:40.790Z,101268.66
2023-02-02T08:32:15.986Z,101277.88
2023-02-02T08:34:56.323Z,101271.22
2023-02-02T08:37:30.684Z,101280.50
2023-02-02T08:40:00.716Z,101276.97
2023-02-02T08:42:32.942Z,101275.09
2023-02-02T08:46:01.492Z,101285.94
2023-02-02T08:48:11.732Z,101285.94
2023-02-02T08:50:44.680Z,101281.72
2023-02-02T08:53:14.647Z,101290.06
2023-02-02T08:55:43.469Z,101299.34
2023-02-02T08:58:11.893Z,101312.09
2023-02-02T09:00:40.548Z,101297.31
2023-02-02T09:03:09.251Z,101304.38
2023-02-02T09:05:39.126Z,101309.31
2023-02-02T09:08:07.560Z,101315.91
2023-02-02T09:10:55.097Z,101324.53
2023-02-02T09:16:29.904Z,101330.06
2023-02-02T09:19:05.669Z,101337.63
2023-02-02T09:21:41.551Z,101328.66
2023-02-02T09:24:16.353Z,101337.13
2023-02-02T09:26:49.468Z,101346.84
2023-02-02T09:29:18.880Z,101349.88
2023-02-02T09:31:47.951Z,101350.72
2023-02-02T09:34:22.384Z,101355.31
2023-02-02T09:36:57.379Z,101363.84
2023-02-02T09:39:30.395Z,101361.28
2023-02-02T09:42:29.427Z,101356.97
2023-02-02T09:45:20.129Z,101369.75
2023-02-02T09:47:57.633Z,101373.59
2023-02-02T09:50:40.566Z,101382.59
2023-02-02T09:53:16.907Z,101377.31
2023-02-02T09:55:47.612Z,101377.75
2023-02-02T09:58:23.019Z,101395.38
2023-02-02T10:01:00.374Z,101394.31
2023-02-02T10:03:34.566Z,101399.16
2023-02-02T10:06:08.723Z,101407.38
2023-02-02T10:08:43.202Z,101408.47
2023-02-02T10:11:28.444Z,101413.31
2023-02-02T10:14:03.882Z,101410.09
2023-02-02T10:16:35.117Z,101410.59
2023-02-02T10:19:05.714Z,101420.91
2023-02-02T10:21:41.870Z,101415.53
2023-02-02T10:24:18.651Z,101432.09
2023-02-02T10:26:51.506Z,101434.63
2023-02-02T10:29:48.121Z,101431.84
2023-02-02T10:32:24.723Z,101437.78
2023-02-02T10:35:14.546Z,101438.84
2023-02-02T10:37:50.312Z,101433.75
2023-02-02T10:40:32.720Z,101444.09
2023-02-02T10:43:47.995Z,101441.22
2023-02-02T10:46:23.967Z,101444.84
2023-02-02T10:49:10.097Z,101443.03
2023-02-02T10:51:41.119Z,101443.28
2023-02-02T10:54:26.034Z,101431.75
2023-02-02T10:56:59.998Z,101446.75
2023-02-02T10:59:33.444Z,101444.94
2023-02-02T11:02:18.998Z,101454.47
2023-02-02T11:05:06.968Z,101447.91
2023-02-02T11:07:37.767Z,101448.22
2023-02-02T11:10:12.105Z,101442.13
2023-02-02T11:12:46.664Z,101455.72
2023-02-02T11:15:26.803Z,101459.75
2023-02-02T11:17:57.037Z,101462.00
2023-02-02T11:20:33.559Z,101458.69
2023-02-02T11:23:04.586Z,101457.09
2023-02-02T11:25:35.496Z,101464.03
2023-02-02T11:28:18.731Z,101460.56
2023-02-02T11:30:50.467Z,101459.09
2023-02-02T11:33:29.002Z,101456.94
2023-02-02T11:36:01.193Z,101456.94
2023-02-02T11:38:30.512Z,101456.63
2023-02-02T11:41:03.663Z,101460.75
2023-02-02T11:43:40.917Z,101455.81
2023-02-02T11:46:19.876Z,101461.88
2023-02-02T11:48:56.161Z,101458.09
2023-02-02T11:51:27.121Z,101457.09
2023-02-02T11:54:06.167Z,101448.38
2023-02-02T11:56:36.536Z,101451.50
2023-02-02T11:59:06.260Z,101446.09
2023-02-02T12:01:36.934Z,101446.56
2023-02-02T12:04:25.488Z,101446.25
2023-02-02T12:06:54.410Z,101447.06
2023-02-02T12:09:25.143Z,101448.72
2023-02-02T12:12:02.311Z,101457.44
2023-02-02T12:14:43.460Z,101455.31
2023-02-02T12:17:26.474Z,101446.22
2023-02-02T12:20:19.561Z,101450.59
2023-02-02T12:23:09.543Z,101459.53
2023-02-02T12:26:02.520Z,101461.47
2023-02-02T12:28:50.294Z,101467.97
2023-02-02T12:31:30.122Z,101461.50
2023-02-02T12:34:11.526Z,101463.81
2023-02-02T12:36:54.029Z,101452.88
2023-02-02T12:39:32.101Z,101448.50
2023-02-02T12:42:23.666Z,101455.22
2023-02-02T12:45:20.932Z,101456.91
2023-02-02T12:48:02.269Z,101466.91
2023-02-02T12:50:42.585Z,101463.38
2023-02-02T12:53:37.961Z,101459.38
2023-02-02T12:56:20.856Z,101462.00
2023-02-02T12:59:00.741Z,101456.28
2023-02-02T13:01:41.844Z,101458.75
2023-02-02T13:04:33.805Z,101451.09
2023-02-02T13:07:30.884Z,101450.03
2023-02-02T13:10:19.606Z,101448.41
2023-02-02T13:12:54.060Z,101439.72
2023-02-02T13:15:25.069Z,101450.03
2023-02-02T13:17:56.106Z,101442.50
2023-02-02T13:20:36.086Z,101455.97
2023-02-02T13:23:10.840Z,101445.34
2023-02-02T13:25:48.726Z,101443.22
2023-02-02T13:28:26.531Z,101455.41
2023-02-02T13:31:00.416Z,101462.94
2023-02-02T13:33:34.037Z,101469.72
2023-02-02T13:36:08.373Z,101466.09
2023-02-02T13:38:42.170Z,101466.09
2023-02-02T13:41:13.966Z,101466.78
2023-02-02T13:43:53.777Z,101471.16
2023-02-02T13:46:30.724Z,101464.59
2023-02-02T13:49:06.741Z,101478.44
2023-02-02T13:51:46.612Z,101475.72
2023-02-02T13:54:50.618Z,101483.09
2023-02-02T13:57:42.253Z,101482.03
2023-02-02T14:00:18.424Z,101477.47
2023-02-02T14:02:50.304Z,101479.88
2023-02-02T14:05:26.022Z,101469.50
2023-02-02T14:08:02.136Z,101472.69
2023-02-02T14:10:34.932Z,101468.44
2023-02-02T14:13:35.217Z,101463.63
2023-02-02T14:16:07.027Z,101476.41
2023-02-02T14:18:54.444Z,101471.28
2023-02-02T14:21:56.404Z,101478.00
2023-02-02T14:24:45.988Z,101476.66
2023-02-02T14:28:01.563Z,101496.66
2023-02-02T14:30:35.224Z,101492.22
2023-02-02T14:33:38.495Z,101491.84
2023-02-02T14:36:16.842Z,101486.34
2023-02-02T14:39:04.870Z,101488.53
2023-02-02T14:42:06.283Z,101487.69
2023-02-02T14:44:38.206Z,101507.91
2023-02-02T14:47:42.381Z,101496.19
2023-02-02T14:50:22.425Z,101497.22
2023-02-02T14:53:01.866Z,101500.50
2023-02-02T14:55:32.050Z,101518.91
2023-02-02T14:58:06.918Z,101520.81
2023-02-02T15:01:09.687Z,101516.19
2023-02-02T15:03:53.232Z,101517.19
2023-02-02T15:06:35.022Z,101531.09
2023-02-02T15:09:36.839Z,101529.28
2023-02-02T15:12:20.199Z,101533.13
2023-02-02T15:14:52.800Z,101530.41
2023-02-02T15:17:29.072Z,101534.16
2023-02-02T15:20:09.658Z,101541.25
2023-02-02T15:22:47.486Z,101526.13
2023-02-02T15:25:22.978Z,101522.69
2023-02-02T15:27:58.513Z,101529.09
2023-02-02T15:30:33.608Z,101527.75
2023-02-02T15:33:08.848Z,101528.84
2023-02-02T15:35:38.378Z,101524.97
2023-02-02T15:38:16.371Z,101529.22
2023-02-02T15:40:46.236Z,101528.06
2023-02-02T15:43:17.986Z,101529.78
2023-02-02T15:45:54.138Z,101538.94
2023-02-02T15:48:27.007Z,101540.66
2023-02-02T15:50:56.125Z,101547.50
2023-02-02T15:53:29.641Z,101546.69
2023-02-02T15:55:58.495Z,101556.91
2023-02-02T15:58:33.291Z,101552.13
2023-02-02T16:01:07.997Z,101557.41
2023-02-02T16:03:47.109Z,101568.94
2023-02-02T16:06:16.469Z,101562.84
2023-02-02T16:08:47.407Z,101559.53
2023-02-02T16:11:23.248Z,101560.69
2023-02-02T16:14:01.669Z,101571.06
2023-02-02T16:16:32.139Z,101571.72
2023-02-02T16:19:12.866Z,101571.66
2023-02-02T16:21:47.727Z,101564.88
2023-02-02T16:24:33.176Z,101567.84
2023-02-02T16:27:03.946Z,101568.28
2023-02-02T16:29:34.110Z,101564.41
2023-02-02T16:32:02.965Z,101571.56
2023-02-02T16:34:49.269Z,101570.56
2023-02-02T16:37:25.444Z,101570.41
2023-02-02T16:39:58.498Z,101574.88
2023-02-02T16:42:36.573Z,101575.69
2023-02-02T16:45:07.117Z,101583.34
2023-02-02T16:47:40.248Z,101578.97
2023-02-02T16:50:28.616Z,101580.28
2023-02-02T16:53:02.220Z,101581.88
2023-02-02T16:55:50.040Z,101590.69
2023-02-02T16:58:24.084Z,101604.09
2023-02-02T17:01:15.362Z,101612.44
2023-02-02T17:03:52.810Z,101611.59
2023-02-02T17:06:46.193Z,101602.06
2023-02-02T17:09:34.374Z,101592.66
2023-02-02T17:12:33.248Z,101608.56
2023-02-02T17:15:24.442Z,101604.28
2023-02-02T17:17:53.620Z,101610.78
2023-02-02T17:20:23.095Z,101609.13
2023-02-02T17:22:55.534Z,101626.44
2023-02-02T17:25:30.858Z,101628.09
2023-02-02T17:28:01.905Z,101621.91
2023-02-02T17:30:31.552Z,101632.94
2023-02-02T17:33:00.232Z,101631.06
2023-02-02T17:35:39.929Z,101618.38
2023-02-02T17:38:17.425Z,101628.56
2023-02-02T17:40:46.041Z,101628.75
2023-02-02T17:43:16.090Z,101639.06
2023-02-02T17:45:44.896Z,101629.72
2023-02-02T17:48:14.704Z,101627.34
2023-02-02T17:50:44.245Z,101627.09
2023-02-02T17:53:13.903Z,101626.28
2023-02-02T17:55:44.199Z,101628.41
2023-02-02T17:58:17.416Z,101625.59
2023-02-02T18:00:47.665Z,101624.75
2023-02-02T18:03:21.048Z,101623.06
2023-02-02T18:05:51.298Z,101629.72
2023-02-02T18:08:20.262Z,101633.59
2023-02-02T18:10:48.702Z,101630.16
2023-02-02T18:13:20.829Z,101621.66
2023-02-02T18:15:49.840Z,101635.34
2023-02-02T18:18:19.805Z,101628.75
2023-02-02T18:20:50.245Z,101634.69
2023-02-02T18:23:20.067Z,101626.78
2023-02-02T18:25:48.641Z,101633.03
2023-02-02T18:28:18.673Z,101623.81
2023-02-02T18:30:48.143Z,101633.03
2023-02-02T18:33:19.767Z,101633.03
2023-02-02T18:35:49.688Z,101633.69
2023-02-02T18:38:19.735Z,101635.25
2023-02-02T18:40:55.989Z,101629.81
2023-02-02T18:43:26.076Z,101623.47
2023-02-02T18:46:00.340Z,101632.69
2023-02-02T18:48:30.074Z,101629.16
2023-02-02T18:50:58.689Z,101629.72
2023-02-02T18:53:27.413Z,101626.53
2023-02-02T18:55:56.157Z,101612.69
2023-02-02T18:58:27.604Z,101612.44
2023-02-02T19:00:56.497Z,101614.41
2023-02-02T19:03:25.184Z,101617.06
2023-02-02T19:06:11.126Z,101620.00
2023-02-02T19:08:39.989Z,101618.94
2023-02-02T19:11:15.506Z,101614.41
2023-02-02T19:13:46.001Z,101617.63
2023-02-02T19:16:22.131Z,101628.75
2023-02-02T19:18:51.155Z,101615.53
2023-02-02T19:21:19.711Z,101618.59
2023-02-02T19:23:48.653Z,101629.56
2023-02-02T19:26:24.832Z,101632.53
2023-02-02T19:28:58.612Z,101632.19
2023-02-02T19:31:27.531Z,101629.56
2023-02-02T19:33:56.613Z,101639.13
2023-02-02T19:36:27.696Z,101628.59
2023-02-02T19:39:02.358Z,101635.34
2023-02-02T19:41:31.661Z,101619.09
2023-02-02T19:44:10.477Z,101634.91
2023-02-02T19:46:43.329Z,101627.91
2023-02-02T19:49:14.519Z,101631.34
2023-02-02T19:51:48.646Z,101626.25
2023-02-02T19:54:33.357Z,101626.41
2023-02-02T19:57:07.414Z,101617.97
2023-02-02T19:59:37.448Z,101618.84
2023-02-02T20:02:30.279Z,101628.06
2023-02-02T20:05:02.928Z,101616.69
2023-02-02T20:07:31.909Z,101616.19
2023-02-02T20:10:16.066Z,101616.78
2023-02-02T20:12:44.783Z,101608.28
2023-02-02T20:15:27.175Z,101612.72
2023-02-02T20:17:59.057Z,101620.47
2023-02-02T20:20:30.088Z,101616.19
2023-02-02T20:22:58.917Z,101613.22
2023-02-02T20:25:29.174Z,101615.63
2023-02-02T20:28:07.893Z,101613.16
2023-02-02T20:30:38.080Z,101620.31
2023-02-02T20:33:21.882Z,101617.00
2023-02-02T20:35:51.479Z,101620.88
2023-02-02T20:38:23.785Z,101618.16
2023-02-02T20:40:53.175Z,101622.47
2023-02-02T20:43:22.104Z,101619.50
2023-02-02T20:45:55.035Z,101625.19
2023-02-02T20:48:25.637Z,101610.75
2023-02-02T20:50:54.363Z,101602.84
2023-02-02T20:53:23.250Z,101613.56
2023-02-02T20:55:57.472Z,101616.44
2023-02-02T20:58:26.541Z,101609.94
2023-02-02T21:00:56.926Z,101616.69
2023-02-02T21:03:25.793Z,101621.22
2023-02-02T21:05:54.565Z,101625.25
2023-02-02T21:08:39.979Z,101626.25
2023-02-02T21:11:10.393Z,101626.81
2023-02-02T21:13:47.558Z,101626.56
2023-02-02T21:16:20.746Z,101629.06
2023-02-02T21:18:51.517Z,101644.72
2023-02-02T21:21:22.937Z,101654.09
2023-02-02T21:23:56.577Z,101657.31
2023-02-02T21:26:30.526Z,101675.53
2023-02-02T21:29:04.944Z,101669.34
2023-02-02T21:31:40.659Z,101669.94
2023-02-02T21:34:11.367Z,101661.38
2023-02-02T21:36:44.619Z,101674.88
2023-02-02T21:39:22.236Z,101666.47
2023-02-02T21:41:54.226Z,101652.88
2023-02-02T21:44:24.145Z,101649.16
2023-02-02T21:46:57.909Z,101661.78
2023-02-02T21:49:29.067Z,101650.72
2023-02-02T21:52:03.342Z,101645.03
2023-02-02T21:54:39.018Z,101640.72
2023-02-02T21:57:17.550Z,101625.66
2023-02-02T21:59:47.535Z,101630.38
2023-02-02T22:02:38.299Z,101630.94
2023-02-02T22:05:17.289Z,101631.75
2023-02-02T22:07:46.800Z,101637.94
2023-02-02T22:10:36.631Z,101634.41
2023-02-02T22:13:21.868Z,101624.34
2023-02-02T22:15:54.345Z,101623.84
2023-02-02T22:18:26.881Z,101623.78
2023-02-02T22:20:56.846Z,101630.94
2023-02-02T22:23:28.258Z,101626.03
2023-02-02T22:25:59.122Z,101625.53
2023-02-02T22:28:30.882Z,101643.03
2023-02-02T22:31:01.102Z,101646.88
2023-02-02T22:33:32.487Z,101651.69
2023-02-02T22:36:00.958Z,101635.44
2023-02-02T22:38:29.396Z,101638.91
2023-02-02T22:40:58.119Z,101635.94
2023-02-02T22:43:26.697Z,101640.78
2023-02-02T22:45:55.214Z,101624.47
2023-02-02T22:48:23.698Z,101627.75
2023-02-02T22:50:53.464Z,101625.03
2023-02-02T22:53:22.062Z,101631.47
2023-02-02T22:55:56.287Z,101629.63
2023-02-02T22:58:25.904Z,101632.34
2023-02-02T23:00:54.385Z,101626.34
2023-02-02T23:03:23.071Z,101621.97
2023-02-02T23:05:52.914Z,101615.38
2023-02-02T23:08:21.476Z,101616.28
2023-02-02T23:10:49.976Z,101615.97
2023-02-02T23:13:20.164Z,101621.91
2023-02-02T23:15:48.857Z,101605.97
2023-02-02T23:18:17.483Z,101598.13
2023-02-02T23:20:48.691Z,101617.75
2023-02-02T23:23:18.597Z,101632.94
2023-02-02T23:25:47.010Z,101621.28
2023-02-02T23:28:15.698Z,101612.81
2023-02-02T23:30:44.217Z,101591.13
2023-02-02T23:33:12.726Z,101593.53
2023-02-02T23:35:41.112Z,101584.50
2023-02-02T23:38:09.688Z,101593.50
2023-02-02T23:40:39.881Z,101590.00
2023-02-02T23:43:08.444Z,101581.25
2023-02-02T23:45:38.780Z,101569.28
2023-02-02T23:48:08.492Z,101565.81
2023-02-02T23:50:38.394Z,101568.22
2023-02-02T23:53:08.669Z,101557.91
2023-02-02T23:55:39.017Z,101550.88
2023-02-02T23:58:07.701Z,101533.91
